Time;durP1;ratioP1;P1;durP2;ratioP2;P2;SDS_P1;SDS_P2;PMS_P1;PMS_P2;Temp;Humidity;BMP_temperature;BMP_pressure;BME280_temperature;BME280_humidity;BME280_pressure;Samples;Min_cycle;Max_cycle;Signal;HPM_P1;HPM_P2
2021/09/23 00:00:57;;;;;;;53.30;32.70;;;;;;;12.98;100.00;101497.19;5071616;28;20411;-71
2021/09/23 00:03:43;;;;;;;60.67;33.70;;;;;;;12.99;100.00;101498.03;5089352;28;20066;-71
2021/09/23 00:06:08;;;;;;;;;;;;;;;12.98;100.00;101502.53;5088681;28;20036;-74
2021/09/23 00:08:33;;;;;;;;;;;;;;;13.03;100.00;101489.50;5071676;28;19937;-74
2021/09/23 00:10:59;;;;;;;65.30;34.73;;;;;;;12.99;100.00;101480.09;5088706;28;19931;-74
2021/09/23 00:13:25;;;;;;;63.53;33.23;;;;;;;12.95;100.00;101473.41;5089192;28;20028;-73
2021/09/23 00:15:51;;;;;;;;;;;;;;;12.95;100.00;101476.06;5089401;28;20035;-74
2021/09/23 00:18:17;;;;;;;;;;;;;;;12.98;100.00;101481.09;5089327;28;19922;-72
2021/09/23 00:20:44;;;;;;;;;;;;;;;12.91;100.00;101461.31;5071397;28;19915;-71
2021/09/23 00:23:12;;;;;;;59.55;32.95;;;;;;;12.89;100.00;101455.25;5071030;28;19908;-72
2021/09/23 00:25:37;;;;;;;68.65;35.70;;;;;;;12.90;100.00;101459.63;5088687;28;20024;-71
2021/09/23 00:28:06;;;;;;;63.17;34.20;;;;;;;12.91;100.00;101453.25;5089056;28;20032;-71
2021/09/23 00:30:32;;;;;;;59.47;34.13;;;;;;;12.83;100.00;101455.88;5054118;28;20058;-71
2021/09/23 00:32:57;;;;;;;61.03;34.78;;;;;;;12.92;100.00;101454.94;5071166;28;20076;-71
2021/09/23 00:35:23;;;;;;;65.23;34.63;;;;;;;12.87;100.00;101449.22;5070794;28;20149;-71
2021/09/23 00:37:49;;;;;;;64.80;36.78;;;;;;;12.87;100.00;101444.69;5070754;28;20445;-71
2021/09/23 00:40:17;;;;;;;57.90;35.13;;;;;;;12.84;100.00;101441.50;5088173;28;20067;-71
2021/09/23 00:42:44;;;;;;;62.40;34.53;;;;;;;12.82;100.00;101443.50;5088776;28;20059;-71
2021/09/23 00:45:11;;;;;;;65.05;35.78;;;;;;;12.81;100.00;101433.81;5087247;28;20030;-71
2021/09/23 00:47:38;;;;;;;55.22;32.53;;;;;;;12.81;100.00;101433.81;5087499;28;20039;-71
2021/09/23 00:50:05;;;;;;;68.00;34.05;;;;;;;12.78;100.00;101431.41;5053522;28;20357;-71
2021/09/23 00:52:37;;;;;;;77.30;37.15;;;;;;;12.80;100.00;101429.44;5087327;28;20449;-71
2021/09/23 00:55:08;;;;;;;64.10;34.58;;;;;;;12.84;100.00;101436.16;5070082;28;20633;-71
2021/09/23 00:57:33;;;;;;;68.68;36.22;;;;;;;12.85;100.00;101422.59;5086246;28;20039;-71
2021/09/23 00:59:59;;;;;;;70.28;36.00;;;;;;;12.78;100.00;101410.00;5069887;28;20031;-71
2021/09/23 01:02:28;;;;;;;68.63;35.15;;;;;;;12.80;100.00;101399.94;5054321;28;20040;-71
2021/09/23 01:04:56;;;;;;;66.63;35.85;;;;;;;12.83;100.00;101402.31;5053404;28;20423;-71
2021/09/23 01:07:22;;;;;;;65.53;34.30;;;;;;;12.84;100.00;101386.06;5070229;28;20039;-71
2021/09/23 01:09:51;;;;;;;61.33;34.35;;;;;;;12.78;100.00;101385.88;5069773;28;20080;-71
2021/09/23 01:12:19;;;;;;;69.50;34.70;;;;;;;12.86;100.00;101375.19;5086914;28;20154;-71
2021/09/23 01:14:48;;;;;;;64.40;34.55;;;;;;;12.99;100.00;101369.38;5086870;28;20085;-71
2021/09/23 01:17:14;;;;;;;69.38;31.15;;;;;;;13.00;100.00;101361.16;5069866;28;20480;-71
2021/09/23 01:19:47;;;;;;;67.75;33.47;;;;;;;13.00;100.00;101361.16;5070128;28;20027;-72
2021/09/23 01:22:14;;;;;;;64.93;32.78;;;;;;;13.01;100.00;101372.72;5069936;28;20092;-71
2021/09/23 01:25:17;;;;;;;61.53;31.30;;;;;;;13.13;100.00;101354.50;5064474;28;20532;-71
2021/09/23 01:27:44;;;;;;;61.20;32.08;;;;;;;13.08;100.00;101350.44;5086895;28;20028;-71
2021/09/23 01:30:13;;;;;;;60.63;32.92;;;;;;;13.07;100.00;101340.75;5086413;28;20024;-71
2021/09/23 01:32:43;;;;;;;63.20;32.45;;;;;;;13.05;100.00;101326.66;5069908;28;20027;-71
2021/09/23 01:35:10;;;;;;;62.53;34.40;;;;;;;13.12;100.00;101328.69;5069613;28;20482;-71
2021/09/23 01:37:36;;;;;;;67.18;34.80;;;;;;;13.10;100.00;101327.00;5069685;28;20028;-71
2021/09/23 01:40:04;;;;;;;62.17;34.23;;;;;;;13.00;100.00;101315.59;5069524;28;20112;-71
2021/09/23 01:42:29;;;;;;;69.93;36.17;;;;;;;12.97;100.00;101304.34;5069385;28;20088;-74
2021/09/23 01:44:55;;;;;;;74.13;35.78;;;;;;;12.97;100.00;101299.88;5069683;28;20016;-74
2021/09/23 01:47:22;;;;;;;69.18;35.47;;;;;;;12.96;100.00;101305.38;5068193;28;20055;-74
2021/09/23 01:49:52;;;;;;;61.15;34.05;;;;;;;13.05;100.00;101305.22;5069287;28;20032;-71
2021/09/23 01:52:18;;;;;;;64.35;37.72;;;;;;;13.12;100.00;101293.84;5069414;28;20066;-71
2021/09/23 01:54:59;;;;;;;67.82;35.10;;;;;;;13.10;100.00;101284.13;5086206;28;20044;-72
2021/09/23 01:57:25;;;;;;;66.80;36.97;;;;;;;13.09;100.00;101285.13;5086239;28;20114;-72
2021/09/23 01:59:51;;;;;;;71.00;38.28;;;;;;;13.17;100.00;101278.94;5086166;28;20051;-72
2021/09/23 02:02:23;;;;;;;75.07;37.65;;;;;;;13.18;100.00;101279.75;5086175;28;20040;-71
2021/09/23 02:04:51;;;;;;;70.47;37.50;;;;;;;13.23;100.00;101274.75;5069218;28;20475;-71
2021/09/23 02:07:17;;;;;;;74.38;39.53;;;;;;;13.20;100.00;101270.53;5069334;28;20032;-71
2021/09/23 02:09:48;;;;;;;70.57;38.25;;;;;;;13.19;100.00;101273.41;5085220;28;20472;-71
2021/09/23 02:12:13;;;;;;;74.85;40.97;;;;;;;13.16;100.00;101258.50;5069844;28;20047;-71
2021/09/23 02:14:40;;;;;;;71.28;39.90;;;;;;;13.23;100.00;101258.69;5085772;28;20046;-71
2021/09/23 02:17:06;;;;;;;80.97;41.50;;;;;;;13.17;100.00;101256.66;5087018;28;20028;-71
2021/09/23 02:19:51;;;;;;;72.55;40.22;;;;;;;13.18;100.00;101253.81;5085803;28;20058;-74
2021/09/23 02:22:18;;;;;;;72.35;39.42;;;;;;;13.19;100.00;101239.38;5086292;28;20089;-74
2021/09/23 02:24:47;;;;;;;80.05;42.75;;;;;;;13.16;100.00;101233.50;5069130;28;20077;-71
2021/09/23 02:27:12;;;;;;;80.30;41.47;;;;;;;13.17;100.00;101229.84;5087143;28;20044;-72
2021/09/23 02:29:38;;;;;;;78.50;40.33;;;;;;;13.12;100.00;101213.44;5068753;28;20032;-72
2021/09/23 02:32:05;;;;;;;69.15;38.80;;;;;;;13.16;100.00;101204.88;5069432;28;20112;-72
2021/09/23 02:34:31;;;;;;;76.15;39.85;;;;;;;13.14;100.00;101192.66;5069084;28;20476;-71
2021/09/23 02:36:57;;;;;;;82.80;43.42;;;;;;;13.09;100.00;101194.00;5086161;28;20055;-72
2021/09/23 02:39:23;;;;;;;72.82;39.65;;;;;;;13.01;100.00;101199.34;5068877;28;20126;-72
2021/09/23 02:41:48;;;;;;;72.72;39.35;;;;;;;13.04;100.00;101206.19;5069466;28;20193;-71
2021/09/23 02:44:14;;;;;;;74.63;40.23;;;;;;;13.03;100.00;101208.03;5052282;28;20061;-71
2021/09/23 02:46:40;;;;;;;66.30;39.00;;;;;;;13.01;100.00;101212.75;5086946;28;20577;-72
2021/09/23 02:49:05;;;;;;;67.05;39.95;;;;;;;13.00;100.00;101189.63;5068722;28;20067;-71
2021/09/23 02:51:31;;;;;;;58.23;34.43;;;;;;;12.93;100.00;101185.94;5069012;28;20089;-71
2021/09/23 02:53:56;;;;;;;64.37;35.77;;;;;;;12.91;100.00;101193.31;5068972;28;20028;-71
2021/09/23 02:56:22;;;;;;;61.33;36.30;;;;;;;12.86;100.00;101182.25;5085406;28;20492;-71
2021/09/23 02:58:48;;;;;;;67.60;36.77;;;;;;;12.81;100.00;101184.59;5086602;28;20043;-71
2021/09/23 03:01:14;;;;;;;65.72;36.40;;;;;;;12.77;100.00;101180.59;5068938;28;20677;-71
2021/09/23 03:03:40;;;;;;;63.17;36.75;;;;;;;12.71;100.00;101183.91;5085844;28;20020;-71
2021/09/23 03:06:06;;;;;;;63.17;34.40;;;;;;;12.66;100.00;101161.13;5068605;28;20349;-71
2021/09/23 03:08:31;;;;;;;61.17;35.88;;;;;;;12.70;100.00;101158.97;5068689;28;20104;-71
2021/09/23 03:10:57;;;;;;;62.57;35.83;;;;;;;12.63;100.00;101145.41;5068319;28;20035;-71
2021/09/23 03:13:22;;;;;;;61.83;34.47;;;;;;;12.62;100.00;101143.75;5068939;28;20602;-71
2021/09/23 03:15:48;;;;;;;60.20;35.77;;;;;;;12.52;100.00;101145.72;5068398;28;20068;-71
2021/09/23 03:18:14;;;;;;;57.08;34.53;;;;;;;12.54;100.00;101143.72;5068769;28;20064;-74
2021/09/23 03:20:41;;;;;;;59.93;34.70;;;;;;;12.44;100.00;101130.47;5069883;28;20460;-74
2021/09/23 03:23:07;;;;;;;65.03;35.35;;;;;;;12.40;100.00;101141.69;5072391;28;20122;-74
2021/09/23 03:25:33;;;;;;;68.13;35.85;;;;;;;12.36;100.00;101138.50;5088877;28;20186;-74
2021/09/23 03:27:59;;;;;;;60.85;38.25;;;;;;;12.35;100.00;101131.47;5089212;28;20086;-74
2021/09/23 03:30:24;;;;;;;63.33;35.63;;;;;;;12.31;100.00;101129.28;5089899;28;20468;-74
2021/09/23 03:32:50;;;;;;;65.67;35.93;;;;;;;12.29;100.00;101131.28;5072066;28;20100;-74
2021/09/23 03:35:18;;;;;;;66.47;36.33;;;;;;;12.24;100.00;101132.63;5089738;28;20479;-71
2021/09/23 03:37:45;;;;;;;69.75;38.33;;;;;;;12.18;100.00;101129.78;5055359;28;20055;-71
2021/09/23 03:40:10;;;;;;;;;;;;;;;12.27;100.00;101128.78;5072257;28;20310;-71
2021/09/23 03:42:36;;;;;;;;;;;;;;;12.25;100.00;101130.78;5089266;28;19912;-71
2021/09/23 03:45:04;;;;;;;64.15;35.65;;;;;;;12.17;100.00;101128.91;5071934;28;20230;-71
2021/09/23 03:47:30;;;;;;;74.65;37.63;;;;;;;12.17;100.00;101128.06;5089285;28;20042;-71
2021/09/23 03:49:55;;;;;;;67.40;38.55;;;;;;;12.14;100.00;101139.13;5089498;28;20182;-74
2021/09/23 03:52:21;;;;;;;72.23;36.43;;;;;;;12.16;100.00;101143.31;5071610;28;20028;-71
2021/09/23 03:54:46;;;;;;;60.83;34.33;;;;;;;12.30;100.00;101135.66;5089349;28;20028;-74
2021/09/23 03:57:12;;;;;;;59.15;35.03;;;;;;;12.25;100.00;101120.91;5071600;28;20484;-74
2021/09/23 03:59:38;;;;;;;65.57;36.42;;;;;;;12.25;100.00;101115.56;5071347;28;20097;-74
2021/09/23 04:02:03;;;;;;;62.03;35.83;;;;;;;12.24;100.00;101107.69;5089387;28;20068;-74
2021/09/23 04:04:29;;;;;;;63.55;35.53;;;;;;;12.25;100.00;101104.84;5088993;28;20065;-74
2021/09/23 04:06:54;;;;;;;63.67;35.63;;;;;;;12.22;100.00;101105.19;5071532;28;20092;-74
2021/09/23 04:09:20;;;;;;;58.92;35.17;;;;;;;12.30;100.00;101090.97;5087549;28;20120;-74
2021/09/23 04:11:46;;;;;;;63.35;36.28;;;;;;;12.25;100.00;101072.72;5071697;28;20113;-74
2021/09/23 04:14:12;;;;;;;62.42;35.08;;;;;;;12.25;100.00;101070.06;5087854;28;20314;-71
2021/09/23 04:16:38;;;;;;;65.03;36.27;;;;;;;12.32;100.00;101059.53;5089216;28;20460;-71
2021/09/23 04:19:05;;;;;;;62.90;36.60;;;;;;;12.35;100.00;101040.44;5070630;28;20019;-71
2021/09/23 04:21:31;;;;;;;63.70;34.80;;;;;;;12.33;100.00;101033.59;5089062;28;20035;-71
2021/09/23 04:23:57;;;;;;;63.47;34.20;;;;;;;12.32;100.00;101029.25;5087889;28;20028;-74
2021/09/23 04:26:23;;;;;;;59.83;34.33;;;;;;;12.37;100.00;101026.91;5087825;28;20032;-74
2021/09/23 04:28:49;;;;;;;65.53;35.72;;;;;;;12.46;100.00;101031.25;5070779;28;20243;-74
2021/09/23 04:31:14;;;;;;;65.88;36.13;;;;;;;12.46;100.00;101031.25;5054216;28;20368;-74
2021/09/23 04:33:40;;;;;;;67.20;35.47;;;;;;;12.50;100.00;101021.84;5070904;28;20039;-73
2021/09/23 04:36:06;;;;;;;63.07;34.57;;;;;;;12.50;100.00;101021.84;5087493;28;20031;-73
2021/09/23 04:38:32;;;;;;;;;;;;;;;12.48;100.00;101018.53;5070914;28;20289;-74
2021/09/23 04:40:57;;;;;;;;;;;;;;;12.49;100.00;101020.19;5088352;28;19926;-74
2021/09/23 04:43:23;;;;;;;66.13;33.93;;;;;;;12.48;100.00;101002.47;5087944;28;20095;-71
2021/09/23 04:45:49;;;;;;;65.97;35.53;;;;;;;12.49;100.00;100988.06;5070489;28;20036;-74
2021/09/23 04:48:14;;;;;;;65.07;34.30;;;;;;;12.51;100.00;100996.75;5088436;28;20024;-74
2021/09/23 04:50:42;;;;;;;68.75;35.83;;;;;;;12.56;100.00;100997.09;5070478;28;20268;-74
2021/09/23 04:53:08;;;;;;;70.15;39.67;;;;;;;12.58;100.00;101002.28;5087698;28;20353;-73
2021/09/23 04:55:34;;;;;;;68.90;37.33;;;;;;;12.62;100.00;100988.38;5053663;28;20067;-74
2021/09/23 04:58:00;;;;;;;64.82;36.20;;;;;;;12.62;100.00;100987.56;5087330;28;20347;-71
2021/09/23 05:00:26;;;;;;;71.43;36.65;;;;;;;12.58;100.00;100976.31;5070019;28;20032;-71
2021/09/23 05:02:52;;;;;;;69.40;37.15;;;;;;;12.57;100.00;100981.84;5070616;28;20039;-71
2021/09/23 05:05:18;;;;;;;64.75;38.90;;;;;;;12.58;100.00;100972.81;5069886;28;20820;-71
2021/09/23 05:07:43;;;;;;;66.87;38.60;;;;;;;12.54;100.00;100985.69;5070388;28;20039;-74
2021/09/23 05:10:10;;;;;;;72.50;38.67;;;;;;;12.52;100.00;100971.63;5069558;28;20444;-74
2021/09/23 05:12:41;;;;;;;62.25;37.17;;;;;;;12.54;100.00;100975.00;5070411;28;20047;-73
2021/09/23 05:15:08;;;;;;;74.23;37.57;;;;;;;12.53;100.00;100967.97;5069728;28;20044;-73
2021/09/23 05:17:34;;;;;;;74.60;39.35;;;;;;;12.53;100.00;100976.00;5088058;28;20114;-73
2021/09/23 05:19:59;;;;;;;65.40;39.58;;;;;;;12.57;100.00;100979.16;5087949;28;20119;-73
2021/09/23 05:22:28;;;;;;;62.00;37.27;;;;;;;12.62;100.00;100966.94;5070107;28;20028;-73
2021/09/23 05:24:55;;;;;;;77.32;39.75;;;;;;;12.61;100.00;100969.78;5069996;28;20028;-74
2021/09/23 05:27:21;;;;;;;70.45;41.03;;;;;;;12.58;100.00;100965.63;5087616;28;20067;-74
2021/09/23 05:29:46;;;;;;;65.68;37.05;;;;;;;12.58;100.00;100948.72;5053101;28;20483;-71
2021/09/23 05:32:12;;;;;;;72.23;38.93;;;;;;;12.57;100.00;100939.84;5087556;28;20340;-71
2021/09/23 05:34:38;;;;;;;71.28;40.97;;;;;;;12.58;100.00;100938.84;5087525;28;20227;-71
2021/09/23 05:37:04;;;;;;;75.53;41.35;;;;;;;12.58;100.00;100949.53;5086396;28;20373;-71
2021/09/23 05:39:30;;;;;;;71.03;38.85;;;;;;;12.63;100.00;100947.19;5087485;28;20039;-71
2021/09/23 05:41:56;;;;;;;72.13;40.13;;;;;;;12.60;100.00;100941.34;5069580;28;20112;-73
2021/09/23 05:44:24;;;;;;;71.70;39.37;;;;;;;12.60;100.00;100952.06;5086884;28;20111;-73
2021/09/23 05:46:52;;;;;;;83.85;41.40;;;;;;;12.65;100.00;100963.94;5087339;28;20051;-74
2021/09/23 05:49:19;;;;;;;76.30;39.95;;;;;;;12.63;100.00;100954.38;5069915;28;20356;-74
2021/09/23 05:51:44;;;;;;;74.60;38.97;;;;;;;12.60;100.00;100939.50;5086420;28;20040;-73
2021/09/23 05:54:10;;;;;;;74.07;39.25;;;;;;;12.60;100.00;100926.09;5087659;28;20043;-73
2021/09/23 05:56:36;;;;;;;66.80;38.53;;;;;;;12.59;100.00;100908.34;5088487;28;20040;-70
2021/09/23 05:59:01;;;;;;;63.17;36.00;;;;;;;12.61;100.00;100911.69;5088278;28;20095;-71
2021/09/23 06:01:27;;;;;;;69.70;38.35;;;;;;;12.66;100.00;100903.97;5087589;28;20043;-71
2021/09/23 06:03:52;;;;;;;68.65;36.97;;;;;;;12.66;100.00;100895.09;5087174;28;20044;-71
2021/09/23 06:06:18;;;;;;;76.30;39.57;;;;;;;12.64;100.00;100884.59;5086985;28;20368;-71
2021/09/23 06:08:43;;;;;;;67.53;38.07;;;;;;;12.62;100.00;100875.06;5069501;28;20035;-71
2021/09/23 06:11:10;;;;;;;67.18;35.50;;;;;;;12.60;100.00;100858.31;5087724;28;20028;-73
2021/09/23 06:13:35;;;;;;;;;;;;;;;12.57;100.00;100851.47;5071117;28;20049;-73
2021/09/23 06:16:01;;;;;;;;;;;;;;;12.52;100.00;100845.78;5088688;28;19920;-73
2021/09/23 06:18:26;;;;;;;73.23;37.90;;;;;;;12.52;100.00;100850.31;5088446;28;19908;-74
2021/09/23 06:20:52;;;;;;;81.15;38.58;;;;;;;12.54;100.00;100835.72;5088317;28;20085;-73
2021/09/23 06:23:17;;;;;;;79.33;38.87;;;;;;;12.52;100.00;100837.75;5088267;28;20131;-73
2021/09/23 06:25:43;;;;;;;74.70;40.13;;;;;;;12.50;100.00;100823.69;5088432;28;20036;-73
2021/09/23 06:28:09;;;;;;;71.13;37.90;;;;;;;12.56;100.00;100823.00;5070511;28;20048;-73
2021/09/23 06:30:34;;;;;;;69.95;37.97;;;;;;;12.58;100.00;100806.78;5087262;28;20134;-73
2021/09/23 06:33:00;;;;;;;71.25;39.28;;;;;;;12.55;100.00;100810.63;5088481;28;20047;-73
2021/09/23 06:35:25;;;;;;;82.63;40.30;;;;;;;12.59;100.00;100814.59;5087075;28;20118;-73
2021/09/23 06:37:51;;;;;;;77.60;39.25;;;;;;;12.54;100.00;100798.22;5087398;28;20039;-73
2021/09/23 06:40:17;;;;;;;79.73;40.77;;;;;;;12.60;100.00;100818.97;5087998;28;20124;-73
2021/09/23 06:42:42;;;;;;;76.22;41.75;;;;;;;12.57;100.00;100827.38;5088340;28;20130;-71
2021/09/23 06:45:08;;;;;;;72.43;38.87;;;;;;;12.60;100.00;100824.34;5088061;28;20101;-71
2021/09/23 06:47:34;;;;;;;74.30;41.28;;;;;;;12.59;100.00;100828.00;5088251;28;20050;-71
2021/09/23 06:50:00;;;;;;;70.63;37.47;;;;;;;12.57;100.00;100813.97;5087836;28;20036;-71
2021/09/23 06:52:26;;;;;;;76.25;39.58;;;;;;;12.68;100.00;100820.78;5088195;28;20115;-74
2021/09/23 06:54:54;;;;;;;76.78;38.13;;;;;;;12.78;100.00;100823.22;5089701;28;20036;-73
2021/09/23 06:57:19;;;;;;;74.88;37.30;;;;;;;12.79;100.00;100814.22;5057494;28;20094;-71
2021/09/23 07:00:05;;;;;;;65.63;35.83;;;;;;;12.89;100.00;100820.16;5091953;28;20162;-74
2021/09/23 07:02:45;;;;;;;75.95;38.63;;;;;;;12.93;100.00;100816.13;5059266;28;20282;-74
2021/09/23 07:05:19;;;;;;;64.38;35.83;;;;;;;12.86;100.00;100817.84;5073604;28;20123;-71
2021/09/23 07:07:46;;;;;;;65.13;37.25;;;;;;;13.06;100.00;100811.03;5091733;28;20036;-71
2021/09/23 07:10:13;;;;;;;68.70;37.92;;;;;;;12.95;100.00;100800.72;5089838;28;20432;-71
2021/09/23 07:12:40;;;;;;;62.92;35.50;;;;;;;13.01;100.00;100800.00;5090697;28;20047;-71
2021/09/23 07:15:06;;;;;;;64.00;36.38;;;;;;;13.07;100.00;100798.47;5073365;28;20040;-71
2021/09/23 07:17:33;;;;;;;85.38;37.13;;;;;;;13.05;100.00;100801.31;5073691;28;20036;-71
2021/09/23 07:19:58;;;;;;;69.50;35.40;;;;;;;13.12;100.00;100792.56;5091338;28;20736;-74
2021/09/23 07:22:24;;;;;;;65.38;35.03;;;;;;;13.09;100.00;100791.91;5056904;28;20122;-71
2021/09/23 07:24:49;;;;;;;68.23;36.33;;;;;;;12.93;100.00;100785.84;5090376;28;20111;-74
2021/09/23 07:27:15;;;;;;;69.45;36.30;;;;;;;13.00;100.00;100782.25;5073349;28;20039;-71
2021/09/23 07:29:41;;;;;;;60.53;31.93;;;;;;;13.12;100.00;100795.25;5056531;28;20414;-71
2021/09/23 07:32:09;;;;;;;63.60;34.95;;;;;;;13.00;100.00;100792.16;5073571;28;20107;-73
2021/09/23 07:34:35;;;;;;;60.97;33.30;;;;;;;13.00;100.00;100797.50;5056564;28;20063;-74
2021/09/23 07:37:00;;;;;;;67.50;35.40;;;;;;;13.10;100.00;100785.53;5073031;28;20094;-74
2021/09/23 07:39:27;;;;;;;67.32;36.50;;;;;;;13.18;100.00;100794.53;5090011;28;20309;-73
2021/09/23 07:41:53;;;;;;;70.03;35.00;;;;;;;13.09;100.00;100785.72;5073220;28;20078;-74
2021/09/23 07:44:22;;;;;;;66.72;33.78;;;;;;;13.12;100.00;100766.59;5089728;28;20027;-74
2021/09/23 07:46:47;;;;;;;65.32;34.08;;;;;;;13.18;100.00;100779.28;5072826;28;20028;-74
2021/09/23 07:49:14;;;;;;;65.20;33.45;;;;;;;13.24;100.00;100772.38;5072896;28;20111;-73
2021/09/23 07:51:39;;;;;;;65.22;32.22;;;;;;;13.25;100.00;100768.66;5090744;28;20054;-73
2021/09/23 07:54:05;;;;;;;56.97;31.30;;;;;;;13.27;100.00;100766.63;5089764;28;20485;-73
2021/09/23 07:56:33;;;;;;;56.60;30.88;;;;;;;13.39;100.00;100775.97;5072739;28;20036;-73
2021/09/23 07:58:59;;;;;;;63.10;32.10;;;;;;;13.43;100.00;100754.97;5089334;28;20042;-70
2021/09/23 08:01:25;;;;;;;58.35;33.20;;;;;;;13.40;100.00;100750.81;5072982;28;20127;-71
2021/09/23 08:03:55;;;;;;;60.97;32.58;;;;;;;13.52;100.00;100752.03;5072498;28;20042;-73
2021/09/23 08:06:22;;;;;;;63.50;32.42;;;;;;;13.61;100.00;100757.34;5071328;28;20115;-73
2021/09/23 08:08:49;;;;;;;58.75;31.40;;;;;;;13.64;100.00;100756.97;5088769;28;20122;-73
2021/09/23 08:11:15;;;;;;;60.67;32.10;;;;;;;13.71;100.00;100748.00;5072581;28;20028;-73
2021/09/23 08:13:42;;;;;;;58.53;31.05;;;;;;;13.77;100.00;100741.09;5072399;28;20043;-73
2021/09/23 08:16:07;;;;;;;56.83;30.30;;;;;;;13.67;100.00;100729.78;5072191;28;20028;-73
2021/09/23 08:18:51;;;;;;;54.38;29.60;;;;;;;13.77;100.00;100716.94;5090233;28;20100;-73
2021/09/23 08:21:52;;;;;;;55.03;28.60;;;;;;;13.79;99.69;100706.00;5028102;28;20693;-71
2021/09/23 08:24:18;;;;;;;54.17;30.98;;;;;;;13.78;100.00;100705.19;5059266;28;20048;-71
2021/09/23 08:26:43;;;;;;;58.13;30.75;;;;;;;13.83;100.00;100713.50;5072342;28;20036;-71
2021/09/23 08:29:09;;;;;;;55.17;28.88;;;;;;;13.82;100.00;100703.81;5088734;28;20032;-71
2021/09/23 08:31:36;;;;;;;;;;;;;;;13.85;100.00;100705.28;5089591;28;20036;-71
2021/09/23 08:34:02;;;;;;;55.28;29.90;;;;;;;13.91;100.00;100694.63;5072004;28;19920;-71
2021/09/23 08:36:27;;;;;;;53.80;29.33;;;;;;;13.81;100.00;100691.38;5088860;28;20034;-70
2021/09/23 08:38:53;;;;;;;54.92;29.13;;;;;;;13.91;100.00;100667.81;5088502;28;20032;-70
2021/09/23 08:41:19;;;;;;;57.28;28.40;;;;;;;13.87;100.00;100692.50;5071972;28;20036;-71
2021/09/23 08:43:46;;;;;;;49.92;27.23;;;;;;;13.90;100.00;100670.66;5071756;28;20047;-70
2021/09/23 08:46:12;;;;;;;50.78;28.55;;;;;;;13.97;100.00;100671.59;5088503;28;20127;-70
2021/09/23 08:48:38;;;;;;;51.65;27.17;;;;;;;14.01;100.00;100672.88;5088539;28;20451;-70
2021/09/23 08:51:04;;;;;;;55.58;26.80;;;;;;;14.08;100.00;100663.06;5071761;28;20427;-71
2021/09/23 08:53:31;;;;;;;62.22;27.33;;;;;;;14.09;99.95;100670.09;5055273;28;20046;-73
2021/09/23 08:55:57;;;;;;;48.00;26.05;;;;;;;14.12;99.97;100663.53;5071260;28;20028;-73
2021/09/23 08:58:26;;;;;;;56.60;28.08;;;;;;;14.22;99.92;100657.88;5088667;28;20034;-71
2021/09/23 09:01:01;;;;;;;48.30;26.52;;;;;;;14.18;100.00;100638.59;5054711;28;20031;-74
2021/09/23 09:03:32;;;;;;;54.05;27.67;;;;;;;14.47;98.84;100650.28;5071715;28;20039;-74
2021/09/23 09:06:17;;;;;;;45.10;25.55;;;;;;;14.31;98.91;100640.63;5070860;28;20028;-74
2021/09/23 09:08:52;;;;;;;51.83;26.92;;;;;;;14.23;99.49;100628.13;5070626;28;20031;-73
2021/09/23 09:11:20;;;;;;;47.10;25.55;;;;;;;14.10;100.00;100617.25;5070821;28;20036;-71
2021/09/23 09:13:48;;;;;;;;;;;;;;;14.16;100.00;100632.59;5071891;28;20024;-71
2021/09/23 09:16:17;;;;;;;50.78;27.25;;;;;;;14.23;100.00;100625.44;5070910;28;20352;-73
2021/09/23 09:18:44;;;;;;;52.30;24.05;;;;;;;14.09;100.00;100637.03;5070184;28;20142;-74
2021/09/23 09:21:12;;;;;;;46.42;24.75;;;;;;;14.15;100.00;100626.38;5087792;28;20376;-74
2021/09/23 09:23:47;;;;;;;44.08;24.40;;;;;;;14.12;100.00;100613.34;5088168;28;20031;-74
2021/09/23 09:26:25;;;;;;;51.55;26.50;;;;;;;14.27;100.00;100610.63;5053896;28;20036;-74
2021/09/23 09:28:52;;;;;;;51.70;23.85;;;;;;;14.31;100.00;100616.44;5088717;28;20042;-73
2021/09/23 09:31:21;;;;;;;45.90;23.75;;;;;;;14.42;99.63;100598.97;5070483;28;20089;-74
2021/09/23 09:33:49;;;;;;;39.80;22.70;;;;;;;14.40;99.92;100590.28;5086664;28;20424;-74
2021/09/23 09:36:27;;;;;;;41.70;23.15;;;;;;;14.33;99.94;100580.31;5070055;28;20032;-73
2021/09/23 09:39:14;;;;;;;40.55;21.70;;;;;;;14.32;100.00;100578.66;5070483;28;20035;-74
2021/09/23 09:41:43;;;;;;;38.63;23.15;;;;;;;14.36;100.00;100577.25;5070778;28;20368;-74
2021/09/23 09:44:12;;;;;;;36.35;20.17;;;;;;;14.34;100.00;100576.59;5054085;28;20028;-72
2021/09/23 09:46:51;;;;;;;44.88;22.70;;;;;;;14.38;100.00;100568.19;5070704;28;20032;-71
2021/09/23 09:49:19;;;;;;;33.63;19.45;;;;;;;14.41;100.00;100565.94;5087471;28;20077;-71
2021/09/23 09:51:52;;;;;;;39.22;20.00;;;;;;;14.44;100.00;100553.97;5070778;28;20043;-74
2021/09/23 09:54:20;;;;;;;43.58;20.75;;;;;;;14.50;100.00;100551.34;5070744;28;20050;-74
2021/09/23 09:56:56;;;;;;;39.75;20.67;;;;;;;14.53;100.00;100564.38;5070454;28;20039;-74
2021/09/23 09:59:21;;;;;;;39.65;20.20;;;;;;;14.49;100.00;100540.78;5087091;28;20028;-71
2021/09/23 10:01:54;;;;;;;35.70;18.92;;;;;;;14.44;100.00;100543.22;5070790;28;20050;-74
2021/09/23 10:04:22;;;;;;;35.10;17.50;;;;;;;14.49;100.00;100559.59;5086403;28;20082;-71
2021/09/23 10:06:54;;;;;;;36.90;17.75;;;;;;;14.49;100.00;100546.16;5070529;28;20448;-71
2021/09/23 10:09:20;;;;;;;31.15;17.10;;;;;;;14.50;100.00;100532.53;5069714;28;20060;-71
2021/09/23 10:11:47;;;;;;;37.88;19.05;;;;;;;14.44;100.00;100537.84;5070537;28;20102;-71
2021/09/23 10:14:15;;;;;;;33.67;16.70;;;;;;;14.47;100.00;100537.47;5070091;28;20043;-71
2021/09/23 10:16:40;;;;;;;36.30;18.55;;;;;;;14.49;100.00;100532.72;5087204;28;20122;-71
2021/09/23 10:19:08;;;;;;;42.30;18.15;;;;;;;14.53;100.00;100532.16;5053405;28;20120;-71
2021/09/23 10:21:35;;;;;;;36.63;19.27;;;;;;;14.46;100.00;100520.50;5088319;28;20473;-71
2021/09/23 10:24:03;;;;;;;35.95;17.33;;;;;;;14.58;100.00;100534.28;5086957;28;20040;-71
2021/09/23 10:26:31;;;;;;;26.48;16.10;;;;;;;14.59;100.00;100517.16;5070339;28;20437;-71
2021/09/23 10:28:59;;;;;;;25.70;15.45;;;;;;;14.53;100.00;100515.22;5070517;28;20077;-71
2021/09/23 10:31:34;;;;;;;34.03;15.40;;;;;;;14.48;100.00;100517.66;5074599;28;20031;-71
2021/09/23 10:34:02;;;;;;;27.77;15.70;;;;;;;14.54;100.00;100527.66;5074225;28;20036;-71
2021/09/23 10:36:33;;;;;;;30.48;16.50;;;;;;;14.51;100.00;100523.44;5091029;28;20067;-71
2021/09/23 10:39:01;;;;;;;28.30;15.90;;;;;;;14.57;100.00;100527.25;5074023;28;20460;-71
2021/09/23 10:41:33;;;;;;;34.05;17.05;;;;;;;14.53;100.00;100526.78;5090274;28;20040;-72
2021/09/23 10:44:00;;;;;;;39.15;16.65;;;;;;;14.55;100.00;100513.19;5057493;28;20058;-71
2021/09/23 10:46:27;;;;;;;27.70;15.98;;;;;;;14.63;100.00;100509.53;5073692;28;20036;-72
2021/09/23 10:48:54;;;;;;;28.73;14.85;;;;;;;14.59;100.00;100503.72;5091964;28;20040;-72
2021/09/23 10:51:21;;;;;;;29.15;15.48;;;;;;;14.55;100.00;100508.66;5091857;28;20067;-72
2021/09/23 10:53:57;;;;;;;28.80;15.35;;;;;;;14.65;100.00;100507.47;5058670;28;20051;-72
2021/09/23 10:56:27;;;;;;;27.10;13.98;;;;;;;14.64;100.00;100487.03;5057109;28;20443;-72
2021/09/23 10:58:55;;;;;;;23.08;14.30;;;;;;;14.60;100.00;100491.13;5073696;28;20023;-71
2021/09/23 11:01:33;;;;;;;27.73;14.40;;;;;;;14.58;100.00;100485.94;5090800;28;20093;-74
2021/09/23 11:04:01;;;;;;;37.78;14.23;;;;;;;14.61;100.00;100490.94;5073831;28;20039;-74
2021/09/23 11:06:36;;;;;;;31.50;15.02;;;;;;;14.57;100.00;100490.47;5089630;28;20024;-74